sensor_id;sensor_type;location;lat;lon;timestamp;P1;durP1;ratioP1;P2;durP2;ratioP2
77821;SDS011;67012;53.712;10.728;2024-03-23T11:09:38;4.85;;;1.50;;
77821;SDS011;67012;53.712;10.728;2024-03-23T11:15:00;10.95;;;1.73;;
77821;SDS011;67012;53.712;10.728;2024-03-23T11:17:26;7.90;;;1.30;;
77821;SDS011;67012;53.712;10.728;2024-03-23T11:27:37;5.60;;;1.25;;
77821;SDS011;67012;53.712;10.728;2024-03-23T11:30:21;8.10;;;1.30;;
77821;SDS011;67012;53.712;10.728;2024-03-23T11:32:52;4.97;;;1.00;;
77821;SDS011;67012;53.712;10.728;2024-03-23T11:35:34;2.85;;;0.98;;
77821;SDS011;67012;53.712;10.728;2024-03-23T11:42:56;5.80;;;1.50;;
77821;SDS011;67012;53.712;10.728;2024-03-23T11:45:21;4.28;;;0.75;;
77821;SDS011;67012;53.712;10.728;2024-03-23T11:47:47;2.33;;;0.83;;
77821;SDS011;67012;53.712;10.728;2024-03-23T11:50:19;3.13;;;0.83;;
77821;SDS011;67012;53.712;10.728;2024-03-23T11:52:44;4.88;;;1.17;;
77821;SDS011;67012;53.712;10.728;2024-03-23T11:55:09;5.20;;;1.00;;
77821;SDS011;67012;53.712;10.728;2024-03-23T11:57:34;3.90;;;0.97;;
77821;SDS011;67012;53.712;10.728;2024-03-23T11:59:59;6.45;;;1.20;;
77821;SDS011;67012;53.712;10.728;2024-03-23T12:02:25;4.53;;;1.40;;
77821;SDS011;67012;53.712;10.728;2024-03-23T12:04:50;3.73;;;1.07;;
77821;SDS011;67012;53.712;10.728;2024-03-23T12:07:18;3.33;;;1.30;;
77821;SDS011;67012;53.712;10.728;2024-03-23T12:09:44;1.70;;;0.82;;
77821;SDS011;67012;53.712;10.728;2024-03-23T12:12:17;4.63;;;1.67;;
77821;SDS011;67012;53.712;10.728;2024-03-23T12:14:43;3.92;;;1.40;;
77821;SDS011;67012;53.712;10.728;2024-03-23T12:17:09;3.58;;;1.13;;
77821;SDS011;67012;53.712;10.728;2024-03-23T12:19:34;2.67;;;0.95;;
77821;SDS011;67012;53.712;10.728;2024-03-23T12:21:59;5.97;;;0.70;;
77821;SDS011;67012;53.712;10.728;2024-03-23T12:24:26;5.03;;;1.30;;
77821;SDS011;67012;53.712;10.728;2024-03-23T12:26:51;4.63;;;1.33;;
77821;SDS011;67012;53.712;10.728;2024-03-23T12:29:16;6.40;;;1.97;;
77821;SDS011;67012;53.712;10.728;2024-03-23T12:31:42;3.45;;;0.80;;
77821;SDS011;67012;53.712;10.728;2024-03-23T12:34:07;1.40;;;0.40;;
77821;SDS011;67012;53.712;10.728;2024-03-23T12:36:33;2.23;;;0.43;;
77821;SDS011;67012;53.712;10.728;2024-03-23T12:38:58;2.78;;;0.40;;
77821;SDS011;67012;53.712;10.728;2024-03-23T12:41:23;3.45;;;0.90;;
77821;SDS011;67012;53.712;10.728;2024-03-23T12:43:48;0.80;;;0.50;;
77821;SDS011;67012;53.712;10.728;2024-03-23T12:46:14;1.60;;;0.50;;
77821;SDS011;67012;53.712;10.728;2024-03-23T12:48:39;3.40;;;1.03;;
77821;SDS011;67012;53.712;10.728;2024-03-23T12:51:04;1.83;;;0.60;;
77821;SDS011;67012;53.712;10.728;2024-03-23T12:53:29;1.30;;;0.40;;
77821;SDS011;67012;53.712;10.728;2024-03-23T12:55:55;1.00;;;0.30;;
77821;SDS011;67012;53.712;10.728;2024-03-23T12:58:22;2.85;;;0.32;;
77821;SDS011;67012;53.712;10.728;2024-03-23T13:00:47;3.05;;;0.25;;
77821;SDS011;67012;53.712;10.728;2024-03-23T13:03:13;0.77;;;0.20;;
77821;SDS011;67012;53.712;10.728;2024-03-23T13:05:38;1.98;;;0.30;;
77821;SDS011;67012;53.712;10.728;2024-03-23T13:08:03;0.57;;;0.30;;
77821;SDS011;67012;53.712;10.728;2024-03-23T13:10:29;1.52;;;0.40;;
77821;SDS011;67012;53.712;10.728;2024-03-23T13:12:54;3.20;;;0.70;;
77821;SDS011;67012;53.712;10.728;2024-03-23T13:15:19;3.33;;;0.47;;
77821;SDS011;67012;53.712;10.728;2024-03-23T13:17:45;0.90;;;0.45;;
77821;SDS011;67012;53.712;10.728;2024-03-23T13:20:10;1.60;;;0.40;;
77821;SDS011;67012;53.712;10.728;2024-03-23T13:22:39;1.98;;;0.60;;
77821;SDS011;67012;53.712;10.728;2024-03-23T13:25:04;4.73;;;1.50;;
77821;SDS011;67012;53.712;10.728;2024-03-23T13:27:29;1.73;;;0.65;;
77821;SDS011;67012;53.712;10.728;2024-03-23T13:29:54;2.00;;;0.55;;
77821;SDS011;67012;53.712;10.728;2024-03-23T13:32:20;2.53;;;0.40;;
77821;SDS011;67012;53.712;10.728;2024-03-23T13:34:45;2.07;;;0.80;;
77821;SDS011;67012;53.712;10.728;2024-03-23T13:37:10;3.50;;;0.52;;
77821;SDS011;67012;53.712;10.728;2024-03-23T13:39:36;1.38;;;0.75;;
77821;SDS011;67012;53.712;10.728;2024-03-23T13:42:01;3.60;;;1.30;;
77821;SDS011;67012;53.712;10.728;2024-03-23T13:44:26;0.40;;;0.30;;
77821;SDS011;67012;53.712;10.728;2024-03-23T13:46:51;0.23;;;0.20;;
77821;SDS011;67012;53.712;10.728;2024-03-23T13:49:24;1.95;;;0.20;;
77821;SDS011;67012;53.712;10.728;2024-03-23T13:51:49;0.73;;;0.20;;
77821;SDS011;67012;53.712;10.728;2024-03-23T13:54:15;0.85;;;0.40;;
77821;SDS011;67012;53.712;10.728;2024-03-23T13:56:40;1.30;;;0.47;;
77821;SDS011;67012;53.712;10.728;2024-03-23T13:59:05;1.37;;;0.40;;
77821;SDS011;67012;53.712;10.728;2024-03-23T14:01:30;0.10;;;0.10;;
77821;SDS011;67012;53.712;10.728;2024-03-23T14:03:56;1.77;;;0.32;;
77821;SDS011;67012;53.712;10.728;2024-03-23T14:06:22;0.87;;;0.20;;
77821;SDS011;67012;53.712;10.728;2024-03-23T14:08:49;1.40;;;0.40;;
77821;SDS011;67012;53.712;10.728;2024-03-23T14:11:14;2.05;;;0.70;;
77821;SDS011;67012;53.712;10.728;2024-03-23T14:13:39;0.88;;;0.52;;
77821;SDS011;67012;53.712;10.728;2024-03-23T14:16:05;4.53;;;0.45;;
77821;SDS011;67012;53.712;10.728;2024-03-23T14:18:30;3.08;;;0.65;;
77821;SDS011;67012;53.712;10.728;2024-03-23T14:20:56;1.57;;;0.30;;
77821;SDS011;67012;53.712;10.728;2024-03-23T14:23:23;1.85;;;0.40;;
77821;SDS011;67012;53.712;10.728;2024-03-23T14:25:48;3.47;;;0.52;;
77821;SDS011;67012;53.712;10.728;2024-03-23T14:28:14;1.25;;;0.50;;
77821;SDS011;67012;53.712;10.728;2024-03-23T14:30:40;2.85;;;0.63;;
77821;SDS011;67012;53.712;10.728;2024-03-23T14:33:05;3.50;;;0.60;;
77821;SDS011;67012;53.712;10.728;2024-03-23T14:35:30;2.90;;;0.57;;
77821;SDS011;67012;53.712;10.728;2024-03-23T14:37:57;4.80;;;0.60;;
77821;SDS011;67012;53.712;10.728;2024-03-23T14:40:23;1.70;;;0.40;;
77821;SDS011;67012;53.712;10.728;2024-03-23T14:42:48;1.50;;;0.77;;
77821;SDS011;67012;53.712;10.728;2024-03-23T14:45:13;3.83;;;0.40;;
77821;SDS011;67012;53.712;10.728;2024-03-23T14:47:40;2.75;;;0.60;;
77821;SDS011;67012;53.712;10.728;2024-03-23T14:50:07;0.98;;;0.63;;
77821;SDS011;67012;53.712;10.728;2024-03-23T14:52:33;2.97;;;0.40;;
77821;SDS011;67012;53.712;10.728;2024-03-23T14:54:58;2.13;;;0.43;;
77821;SDS011;67012;53.712;10.728;2024-03-23T14:57:24;2.97;;;0.60;;
77821;SDS011;67012;53.712;10.728;2024-03-23T14:59:49;11.13;;;0.80;;
77821;SDS011;67012;53.712;10.728;2024-03-23T15:02:14;1.83;;;0.60;;
77821;SDS011;67012;53.712;10.728;2024-03-23T15:04:39;1.45;;;0.47;;
77821;SDS011;67012;53.712;10.728;2024-03-23T15:07:07;1.98;;;0.60;;
77821;SDS011;67012;53.712;10.728;2024-03-23T15:09:32;3.00;;;0.73;;
77821;SDS011;67012;53.712;10.728;2024-03-23T15:11:58;4.43;;;0.60;;
77821;SDS011;67012;53.712;10.728;2024-03-23T15:14:23;1.85;;;0.65;;
77821;SDS011;67012;53.712;10.728;2024-03-23T15:16:48;5.70;;;0.80;;
77821;SDS011;67012;53.712;10.728;2024-03-23T15:19:14;2.03;;;0.73;;
77821;SDS011;67012;53.712;10.728;2024-03-23T15:21:40;4.22;;;0.88;;
77821;SDS011;67012;53.712;10.728;2024-03-23T15:24:05;4.10;;;0.90;;
77821;SDS011;67012;53.712;10.728;2024-03-23T15:26:30;2.95;;;1.00;;
77821;SDS011;67012;53.712;10.728;2024-03-23T15:28:55;2.60;;;0.60;;
77821;SDS011;67012;53.712;10.728;2024-03-23T15:31:24;2.92;;;0.52;;
77821;SDS011;67012;53.712;10.728;2024-03-23T15:33:49;3.72;;;0.80;;
77821;SDS011;67012;53.712;10.728;2024-03-23T15:36:14;1.33;;;0.80;;
77821;SDS011;67012;53.712;10.728;2024-03-23T15:38:40;3.63;;;1.00;;
77821;SDS011;67012;53.712;10.728;2024-03-23T15:41:05;2.87;;;0.80;;
77821;SDS011;67012;53.712;10.728;2024-03-23T15:43:30;0.77;;;0.63;;
77821;SDS011;67012;53.712;10.728;2024-03-23T15:45:56;2.88;;;0.60;;
77821;SDS011;67012;53.712;10.728;2024-03-23T15:48:22;1.45;;;0.80;;
77821;SDS011;67012;53.712;10.728;2024-03-23T15:50:54;3.07;;;0.90;;
77821;SDS011;67012;53.712;10.728;2024-03-23T15:53:20;1.15;;;0.65;;
77821;SDS011;67012;53.712;10.728;2024-03-23T15:55:45;2.65;;;0.80;;
77821;SDS011;67012;53.712;10.728;2024-03-23T15:58:10;6.53;;;1.20;;
77821;SDS011;67012;53.712;10.728;2024-03-23T16:00:36;3.30;;;0.90;;
77821;SDS011;67012;53.712;10.728;2024-03-23T16:03:01;3.05;;;0.65;;
77821;SDS011;67012;53.712;10.728;2024-03-23T16:05:35;4.20;;;0.93;;
77821;SDS011;67012;53.712;10.728;2024-03-23T16:08:00;2.03;;;0.55;;
77821;SDS011;67012;53.712;10.728;2024-03-23T16:10:26;2.45;;;0.98;;
77821;SDS011;67012;53.712;10.728;2024-03-23T16:12:51;11.33;;;1.20;;
77821;SDS011;67012;53.712;10.728;2024-03-23T16:15:16;2.23;;;0.50;;
77821;SDS011;67012;53.712;10.728;2024-03-23T16:17:41;6.23;;;1.33;;
77821;SDS011;67012;53.712;10.728;2024-03-23T16:20:06;2.83;;;0.77;;
77821;SDS011;67012;53.712;10.728;2024-03-23T16:22:34;1.65;;;0.43;;
77821;SDS011;67012;53.712;10.728;2024-03-23T16:24:59;2.23;;;0.73;;
77821;SDS011;67012;53.712;10.728;2024-03-23T16:27:24;2.05;;;0.50;;
77821;SDS011;67012;53.712;10.728;2024-03-23T16:29:49;2.83;;;0.70;;
77821;SDS011;67012;53.712;10.728;2024-03-23T16:32:14;2.63;;;0.53;;
77821;SDS011;67012;53.712;10.728;2024-03-23T16:34:39;2.73;;;0.50;;
77821;SDS011;67012;53.712;10.728;2024-03-23T16:37:04;0.83;;;0.33;;
77821;SDS011;67012;53.712;10.728;2024-03-23T16:39:30;3.40;;;0.60;;
77821;SDS011;67012;53.712;10.728;2024-03-23T16:41:55;0.57;;;0.50;;
77821;SDS011;67012;53.712;10.728;2024-03-23T16:44:20;1.60;;;0.60;;
77821;SDS011;67012;53.712;10.728;2024-03-23T16:46:46;1.95;;;0.60;;
77821;SDS011;67012;53.712;10.728;2024-03-23T16:49:11;2.30;;;0.63;;
77821;SDS011;67012;53.712;10.728;2024-03-23T16:51:36;1.90;;;0.50;;
77821;SDS011;67012;53.712;10.728;2024-03-23T16:54:01;2.13;;;0.53;;
77821;SDS011;67012;53.712;10.728;2024-03-23T16:56:27;1.17;;;0.60;;
77821;SDS011;67012;53.712;10.728;2024-03-23T16:58:52;2.33;;;0.73;;
77821;SDS011;67012;53.712;10.728;2024-03-23T17:01:17;2.65;;;0.65;;
77821;SDS011;67012;53.712;10.728;2024-03-23T17:03:51;2.38;;;0.88;;
77821;SDS011;67012;53.712;10.728;2024-03-23T17:06:17;1.92;;;0.40;;
77821;SDS011;67012;53.712;10.728;2024-03-23T17:08:43;1.88;;;0.40;;
77821;SDS011;67012;53.712;10.728;2024-03-23T17:11:08;1.70;;;0.50;;
77821;SDS011;67012;53.712;10.728;2024-03-23T17:13:34;2.47;;;0.52;;
77821;SDS011;67012;53.712;10.728;2024-03-23T17:16:00;1.20;;;0.68;;
77821;SDS011;67012;53.712;10.728;2024-03-23T17:18:28;4.57;;;0.70;;
77821;SDS011;67012;53.712;10.728;2024-03-23T17:20:53;5.07;;;0.93;;
77821;SDS011;67012;53.712;10.728;2024-03-23T17:23:25;5.27;;;1.17;;
77821;SDS011;67012;53.712;10.728;2024-03-23T17:25:50;3.67;;;0.70;;
77821;SDS011;67012;53.712;10.728;2024-03-23T17:28:16;0.63;;;0.30;;
77821;SDS011;67012;53.712;10.728;2024-03-23T17:30:41;1.03;;;0.53;;
77821;SDS011;67012;53.712;10.728;2024-03-23T17:33:07;1.52;;;0.30;;
77821;SDS011;67012;53.712;10.728;2024-03-23T17:35:32;1.27;;;0.30;;
77821;SDS011;67012;53.712;10.728;2024-03-23T17:37:57;0.20;;;0.20;;
77821;SDS011;67012;53.712;10.728;2024-03-23T17:40:22;0.20;;;0.20;;
77821;SDS011;67012;53.712;10.728;2024-03-23T17:42:47;0.13;;;0.13;;
77821;SDS011;67012;53.712;10.728;2024-03-23T17:45:12;0.40;;;0.20;;
77821;SDS011;67012;53.712;10.728;2024-03-23T17:47:38;0.22;;;0.20;;
77821;SDS011;67012;53.712;10.728;2024-03-23T17:50:04;1.00;;;0.20;;
77821;SDS011;67012;53.712;10.728;2024-03-23T17:52:30;0.52;;;0.15;;
77821;SDS011;67012;53.712;10.728;2024-03-23T17:54:55;0.67;;;0.13;;
77821;SDS011;67012;53.712;10.728;2024-03-23T17:57:20;0.57;;;0.20;;
77821;SDS011;67012;53.712;10.728;2024-03-23T17:59:45;1.03;;;0.23;;
77821;SDS011;67012;53.712;10.728;2024-03-23T18:02:11;0.75;;;0.10;;
77821;SDS011;67012;53.712;10.728;2024-03-23T18:04:36;0.67;;;0.20;;
77821;SDS011;67012;53.712;10.728;2024-03-23T18:07:02;0.20;;;0.20;;
77821;SDS011;67012;53.712;10.728;2024-03-23T18:09:27;0.83;;;0.20;;
77821;SDS011;67012;53.712;10.728;2024-03-23T18:11:52;0.10;;;0.10;;
77821;SDS011;67012;53.712;10.728;2024-03-23T18:14:18;0.10;;;0.10;;
77821;SDS011;67012;53.712;10.728;2024-03-23T18:16:43;0.20;;;0.17;;
77821;SDS011;67012;53.712;10.728;2024-03-23T18:19:08;1.48;;;0.45;;
77821;SDS011;67012;53.712;10.728;2024-03-23T18:21:34;0.30;;;0.30;;
77821;SDS011;67012;53.712;10.728;2024-03-23T18:23:59;1.30;;;0.37;;
77821;SDS011;67012;53.712;10.728;2024-03-23T18:26:24;0.63;;;0.50;;
77821;SDS011;67012;53.712;10.728;2024-03-23T18:28:50;1.00;;;0.30;;
